Monday, October 23, 2017, 1:11 PM EDT
Back to Local

KPHD, New Philadelphia Clever Fld

Location: New Philadelphia, OH, United States Lat: 40.467
Local Time: 1:11 PM EDT (17:11 GMT) Lon: -81.417
Time Zone: US/Eastern Elev: 895 ft

Show me the last for .
Show Decoded

2017-10-23 12:53 METAR KPHD 231653Z AUTO 13009KT 8SM -RA OVC110 17/16 A2988 RMK AO2 SLP117 P0003
                 T01720156 =
2017-10-23 11:53 METAR KPHD 231553Z AUTO 14010KT 10SM -RA BKN110 19/13 A2991 RMK AO2 RAB49 SLP127
                 P0000 T01890133 =
2017-10-23 10:53 METAR KPHD 231453Z AUTO 13008KT 10SM CLR 18/12 A2995 RMK AO2 SLP140 T01830122
                 58019 =
2017-10-23 09:53 METAR KPHD 231353Z AUTO 14006KT 10SM CLR 17/11 A2998 RMK AO2 SLP150 T01720111 =
2017-10-23 08:53 METAR KPHD 231253Z AUTO 14006KT 10SM FEW055 FEW070 17/11 A2999 RMK AO2 SLP155
                 T01670106 =
2017-10-23 07:53 METAR KPHD 231153Z AUTO 14006KT 10SM FEW055 16/11 A3001 RMK AO2 SLP159 T01560106
                 10167 20144 58019 =
2017-10-23 06:53 METAR KPHD 231053Z AUTO 14006KT 10SM BKN070 16/11 A3003 RMK AO2 SLP164 T01560111
                 =
2017-10-23 05:53 METAR KPHD 230953Z AUTO 00000KT 10SM FEW065 15/11 A3005 RMK AO2 SLP172 T01500106
                 =
2017-10-23 04:53 METAR KPHD 230853Z AUTO 13005KT 10SM CLR 16/11 A3006 RMK AO2 SLP177 T01560106
                 58012 =
2017-10-23 03:53 METAR KPHD 230753Z AUTO 12003KT 10SM CLR 16/11 A3008 RMK AO2 SLP182 T01560106 =
2017-10-23 02:53 METAR KPHD 230653Z AUTO 14003KT 10SM CLR 16/11 A3010 RMK AO2 SLP189 T01560106 =
2017-10-23 01:53 METAR KPHD 230553Z AUTO 14005KT 10SM CLR 16/11 A3010 RMK AO2 SLP188 T01610106
                 10178 20128 58013 =
2017-10-23 00:53 METAR KPHD 230453Z AUTO 14003KT 10SM CLR 16/11 A3012 RMK AO2 SLP194 T01560106
                 402610089 =
2017-10-22 23:53 METAR KPHD 230353Z AUTO 13005KT 10SM CLR 13/11 A3013 RMK AO2 SLP200 T01330106 =
2017-10-22 22:53 METAR KPHD 230253Z AUTO 13006KT 10SM CLR 13/11 A3014 RMK AO2 SLP204 T01330106
                 56007 =
2017-10-22 21:53 METAR KPHD 230153Z AUTO 13003KT 10SM CLR 13/11 A3015 RMK AO2 SLP207 T01330106 =
2017-10-22 20:53 METAR KPHD 230053Z AUTO 13003KT 10SM CLR 14/11 A3015 RMK AO2 SLP210 T01440106 =
2017-10-22 19:53 METAR KPHD 222353Z AUTO 13003KT 10SM CLR 18/11 A3016 RMK AO2 SLP214 T01780106
                 10261 20172 50003 =
2017-10-22 18:53 METAR KPHD 222253Z AUTO 14003KT 10SM CLR 21/10 A3016 RMK AO2 SLP213 T02060100 =
2017-10-22 17:53 METAR KPHD 222153Z AUTO 17003KT 10SM CLR 23/11 A3016 RMK AO2 SLP212 T02330106 =
2017-10-22 16:53 METAR KPHD 222053Z AUTO 14004KT 10SM CLR 24/10 A3015 RMK AO2 SLP208 T02440100
                 56023 =
2017-10-22 15:53 METAR KPHD 221953Z AUTO 15006KT 10SM CLR 26/09 A3017 RMK AO2 SLP214 T02560089 =
2017-10-22 14:53 METAR KPHD 221853Z AUTO 16004KT 10SM CLR 25/11 A3020 RMK AO2 SLP223 T02500106 =
2017-10-22 13:53 METAR KPHD 221753Z AUTO VRB04KT 10SM CLR 25/10 A3022 RMK AO2 SLP232 T02500100
                 10250 20089 58020 =

Support USWX by starting your Amazon purchase here.